createdAt,value
2022-09-26T00:01:45.814Z,1.31
2022-09-26T00:04:22.907Z,1.36
2022-09-26T00:06:54.780Z,1.46
2022-09-26T00:09:25.910Z,1.46
2022-09-26T00:11:54.355Z,1.40
2022-09-26T00:14:27.787Z,1.37
2022-09-26T00:16:56.023Z,1.39
2022-09-26T00:19:30.169Z,1.46
2022-09-26T00:21:58.305Z,1.38
2022-09-26T00:24:26.309Z,1.33
2022-09-26T00:26:54.282Z,1.29
2022-09-26T00:29:23.205Z,1.32
2022-09-26T00:31:51.133Z,1.43
2022-09-26T00:34:20.609Z,1.41
2022-09-26T00:36:49.746Z,1.40
2022-09-26T00:39:17.909Z,1.56
2022-09-26T00:41:46.279Z,1.65
2022-09-26T00:44:37.238Z,1.70
2022-09-26T00:47:08.717Z,1.76
2022-09-26T00:49:46.130Z,1.77
2022-09-26T00:52:24.760Z,1.52
2022-09-26T00:54:58.039Z,1.79
2022-09-26T00:57:36.423Z,1.78
2022-09-26T01:00:11.675Z,1.70
2022-09-26T01:02:40.546Z,1.76
2022-09-26T01:05:15.485Z,1.74
2022-09-26T01:07:44.012Z,1.72
2022-09-26T01:10:12.784Z,1.69
2022-09-26T01:12:40.808Z,1.46
2022-09-26T01:15:09.769Z,1.79
2022-09-26T01:17:44.011Z,1.79
2022-09-26T01:20:35.971Z,1.87
2022-09-26T01:23:21.776Z,1.88
2022-09-26T01:26:14.067Z,1.89
2022-09-26T01:28:43.895Z,1.90
2022-09-26T01:31:24.203Z,1.85
2022-09-26T01:34:04.315Z,1.89
2022-09-26T01:36:53.980Z,1.93
2022-09-26T01:39:28.962Z,1.92
2022-09-26T01:42:43.981Z,1.94
2022-09-26T01:45:20.125Z,1.96
2022-09-26T01:48:14.235Z,1.99
2022-09-26T01:50:46.222Z,1.97
2022-09-26T01:53:42.838Z,1.73
2022-09-26T01:56:20.855Z,1.98
2022-09-26T01:59:05.344Z,1.90
2022-09-26T02:01:40.940Z,1.88
2022-09-26T02:04:37.639Z,1.81
2022-09-26T02:07:31.705Z,1.74
2022-09-26T02:10:08.752Z,1.80
2022-09-26T02:12:40.288Z,1.90
2022-09-26T02:15:12.275Z,1.97
2022-09-26T02:17:48.357Z,1.95
2022-09-26T02:20:38.856Z,1.94
2022-09-26T02:23:07.883Z,2.02
2022-09-26T02:25:38.416Z,2.04
2022-09-26T02:28:06.493Z,2.01
2022-09-26T02:30:35.916Z,2.01
2022-09-26T02:33:04.069Z,1.95
2022-09-26T02:35:51.594Z,2.00
2022-09-26T02:38:19.564Z,2.07
2022-09-26T02:41:07.116Z,2.10
2022-09-26T02:43:53.138Z,2.02
2022-09-26T02:46:46.568Z,2.05
2022-09-26T02:49:36.570Z,2.17
2022-09-26T02:52:33.420Z,2.30
2022-09-26T02:55:22.018Z,2.34
2022-09-26T02:58:12.441Z,2.36
2022-09-26T03:00:49.351Z,2.33
2022-09-26T03:03:39.246Z,2.32
2022-09-26T03:06:14.229Z,2.39
2022-09-26T03:08:47.691Z,2.49
2022-09-26T03:11:22.437Z,2.55
2022-09-26T03:13:55.357Z,2.51
2022-09-26T03:16:26.523Z,2.58
2022-09-26T03:19:04.222Z,2.62
2022-09-26T03:21:36.192Z,2.49
2022-09-26T03:24:05.481Z,2.44
2022-09-26T03:26:35.567Z,2.57
2022-09-26T03:29:04.520Z,2.65
2022-09-26T03:31:32.585Z,2.73
2022-09-26T03:34:00.764Z,2.80
2022-09-26T03:36:29.405Z,2.72
2022-09-26T03:38:57.415Z,2.61
2022-09-26T03:41:26.563Z,2.66
2022-09-26T03:43:56.926Z,2.67
2022-09-26T03:46:47.997Z,2.75
2022-09-26T03:49:16.028Z,2.75
2022-09-26T03:51:45.126Z,2.71
2022-09-26T03:54:14.156Z,2.80
2022-09-26T03:56:42.412Z,2.92
2022-09-26T03:59:10.403Z,2.99
2022-09-26T04:01:38.605Z,3.01
2022-09-26T04:04:06.545Z,3.03
2022-09-26T04:06:35.286Z,3.07
2022-09-26T04:09:12.061Z,3.00
2022-09-26T04:11:44.414Z,2.96
2022-09-26T04:14:13.619Z,3.05
2022-09-26T04:16:41.793Z,3.14
2022-09-26T04:19:10.181Z,3.20
2022-09-26T04:21:41.863Z,3.23
2022-09-26T04:24:15.389Z,3.25
2022-09-26T04:26:47.801Z,3.17
2022-09-26T04:29:16.098Z,3.11
2022-09-26T04:31:44.898Z,3.20
2022-09-26T04:34:14.880Z,3.33
2022-09-26T04:36:43.410Z,3.42
2022-09-26T04:39:11.676Z,3.41
2022-09-26T04:41:40.206Z,3.47
2022-09-26T04:44:08.228Z,3.52
2022-09-26T04:47:07.999Z,3.58
2022-09-26T04:49:35.693Z,3.65
2022-09-26T04:52:03.610Z,3.67
2022-09-26T04:54:32.815Z,3.64
2022-09-26T04:57:20.017Z,3.69
2022-09-26T04:59:49.353Z,3.73
2022-09-26T05:02:18.091Z,3.63
2022-09-26T05:04:48.712Z,3.61
2022-09-26T05:07:20.366Z,3.65
2022-09-26T05:09:48.542Z,3.68
2022-09-26T05:12:18.101Z,3.58
2022-09-26T05:14:46.428Z,3.51
2022-09-26T05:17:14.345Z,3.52
2022-09-26T05:19:43.629Z,3.49
2022-09-26T05:22:12.916Z,3.41
2022-09-26T05:24:59.026Z,3.27
2022-09-26T05:27:27.208Z,3.24
2022-09-26T05:29:56.952Z,3.24
2022-09-26T05:32:24.651Z,3.19
2022-09-26T05:34:53.973Z,3.06
2022-09-26T05:37:22.006Z,3.25
2022-09-26T05:40:09.839Z,3.34
2022-09-26T05:42:38.516Z,3.48
2022-09-26T05:45:07.130Z,3.57
2022-09-26T05:47:40.156Z,3.63
2022-09-26T05:50:11.816Z,3.69
2022-09-26T05:52:40.314Z,3.62
2022-09-26T05:55:10.340Z,3.48
2022-09-26T05:57:39.238Z,3.43
2022-09-26T06:00:09.485Z,3.54
2022-09-26T06:02:38.610Z,3.49
2022-09-26T06:05:06.709Z,3.85
2022-09-26T06:07:34.974Z,3.88
2022-09-26T06:10:07.402Z,3.92
2022-09-26T06:12:35.757Z,3.89
2022-09-26T06:15:03.735Z,4.01
2022-09-26T06:17:31.996Z,4.16
2022-09-26T06:19:59.991Z,4.20
2022-09-26T06:22:27.951Z,4.35
2022-09-26T06:24:56.988Z,4.35
2022-09-26T06:27:43.140Z,4.50
2022-09-26T06:30:12.534Z,4.58
2022-09-26T06:32:40.517Z,4.64
2022-09-26T06:35:08.962Z,4.60
2022-09-26T06:37:38.994Z,4.56
2022-09-26T06:40:09.651Z,4.50
2022-09-26T06:42:51.971Z,4.52
2022-09-26T06:45:20.061Z,4.49
2022-09-26T06:47:48.193Z,4.48
2022-09-26T06:50:16.962Z,4.50
2022-09-26T06:52:45.011Z,4.52
2022-09-26T06:55:13.471Z,4.54
2022-09-26T06:57:44.492Z,4.53
2022-09-26T07:00:17.185Z,4.52
2022-09-26T07:02:56.027Z,4.34
2022-09-26T07:05:25.606Z,4.28
2022-09-26T07:07:55.687Z,4.30
2022-09-26T07:10:26.447Z,4.41
2022-09-26T07:13:03.832Z,4.53
2022-09-26T07:15:36.802Z,4.60
2022-09-26T07:18:06.884Z,4.63
2022-09-26T07:20:40.597Z,4.54
2022-09-26T07:23:11.623Z,4.45
2022-09-26T07:25:42.565Z,4.56
2022-09-26T07:28:11.397Z,4.59
2022-09-26T07:30:39.650Z,4.64
2022-09-26T07:33:07.922Z,4.72
2022-09-26T07:35:38.083Z,4.83
2022-09-26T07:38:07.859Z,5.04
2022-09-26T07:40:36.024Z,5.28
2022-09-26T07:43:19.235Z,5.31
2022-09-26T07:46:10.816Z,5.33
2022-09-26T07:48:57.225Z,5.48
2022-09-26T07:51:25.506Z,5.56
2022-09-26T07:53:53.687Z,5.44
2022-09-26T07:56:22.289Z,5.50
2022-09-26T07:58:50.998Z,5.57
2022-09-26T08:01:19.867Z,5.66
2022-09-26T08:03:51.124Z,5.60
2022-09-26T08:06:24.116Z,5.36
2022-09-26T08:11:42.887Z,5.13
2022-09-26T08:14:10.915Z,5.03
2022-09-26T08:16:42.093Z,4.99
2022-09-26T08:19:19.448Z,4.98
2022-09-26T08:21:47.372Z,4.88
2022-09-26T08:24:15.502Z,4.86
2022-09-26T08:26:44.761Z,4.81
2022-09-26T08:29:13.059Z,4.79
2022-09-26T08:31:41.040Z,4.69
2022-09-26T08:34:10.343Z,4.65
2022-09-26T08:36:38.295Z,4.59
2022-09-26T08:39:06.778Z,4.55
2022-09-26T08:42:05.096Z,4.48
2022-09-26T08:44:47.157Z,4.46
2022-09-26T08:48:00.507Z,4.18
2022-09-26T08:50:48.514Z,4.13
2022-09-26T08:53:35.261Z,4.05
2022-09-26T08:56:14.885Z,4.06
2022-09-26T08:58:52.993Z,4.04
2022-09-26T09:01:30.196Z,4.14
2022-09-26T09:04:20.196Z,4.29
2022-09-26T09:06:50.322Z,4.33
2022-09-26T09:09:19.017Z,4.36
2022-09-26T09:12:11.998Z,4.40
2022-09-26T09:15:24.622Z,4.43
2022-09-26T09:18:15.031Z,4.42
2022-09-26T09:20:57.527Z,4.44
2022-09-26T09:23:41.910Z,4.48
2022-09-26T09:29:49.432Z,4.49
2022-09-26T09:32:22.580Z,4.53
2022-09-26T09:35:22.035Z,4.51
2022-09-26T09:37:55.681Z,4.53
2022-09-26T09:40:49.312Z,4.43
2022-09-26T09:43:41.868Z,4.40
2022-09-26T09:46:29.759Z,4.48
2022-09-26T09:49:15.631Z,4.52
2022-09-26T09:52:05.924Z,4.63
2022-09-26T09:54:36.890Z,4.71
2022-09-26T09:57:41.028Z,4.78
2022-09-26T10:00:12.370Z,4.65
2022-09-26T10:02:49.635Z,4.40
2022-09-26T10:05:17.876Z,4.16
2022-09-26T10:07:47.694Z,3.95
2022-09-26T10:10:23.925Z,3.77
2022-09-26T10:12:54.204Z,3.65
2022-09-26T10:15:26.822Z,3.55
2022-09-26T10:18:24.132Z,3.46
2022-09-26T10:21:07.378Z,3.37
2022-09-26T10:23:44.259Z,3.36
2022-09-26T10:26:14.381Z,3.40
2022-09-26T10:28:58.482Z,3.42
2022-09-26T10:31:30.729Z,3.40
2022-09-26T10:34:06.543Z,3.50
2022-09-26T10:36:42.874Z,3.60
2022-09-26T10:39:40.745Z,3.40
2022-09-26T10:42:35.988Z,3.56
2022-09-26T10:45:19.057Z,3.53
2022-09-26T10:47:51.864Z,3.47
2022-09-26T10:50:28.786Z,3.43
2022-09-26T10:53:11.817Z,3.41
2022-09-26T10:55:59.634Z,3.41
2022-09-26T10:59:22.849Z,3.41
2022-09-26T11:02:22.383Z,3.43
2022-09-26T11:05:17.746Z,3.38
2022-09-26T11:07:51.153Z,3.33
2022-09-26T11:10:28.028Z,3.29
2022-09-26T11:13:18.904Z,3.32
2022-09-26T11:16:15.332Z,3.30
2022-09-26T11:18:46.976Z,3.30
2022-09-26T11:21:36.229Z,3.32
2022-09-26T11:24:24.929Z,3.41
2022-09-26T11:27:27.535Z,3.48
2022-09-26T11:30:12.472Z,3.29
2022-09-26T11:32:44.646Z,3.58
2022-09-26T11:35:22.709Z,3.63
2022-09-26T11:38:29.319Z,3.66
2022-09-26T11:41:36.985Z,3.66
2022-09-26T11:44:36.623Z,3.59
2022-09-26T11:47:23.314Z,3.59
2022-09-26T11:50:18.334Z,3.59
2022-09-26T11:53:29.163Z,3.61
2022-09-26T11:56:08.029Z,3.49
2022-09-26T11:58:46.173Z,3.49
2022-09-26T12:01:24.001Z,3.52
2022-09-26T12:04:12.757Z,3.49
2022-09-26T12:07:03.158Z,3.49
2022-09-26T12:10:05.908Z,3.46
2022-09-26T12:12:43.862Z,3.31
2022-09-26T12:15:32.627Z,3.19
2022-09-26T12:18:16.598Z,3.14
2022-09-26T12:21:10.906Z,3.13
2022-09-26T12:23:59.844Z,3.00
2022-09-26T12:27:00.960Z,3.02
2022-09-26T12:30:12.204Z,2.99
2022-09-26T12:32:57.282Z,3.00
2022-09-26T12:35:36.751Z,2.96
2022-09-26T12:38:29.626Z,3.01
2022-09-26T12:41:21.780Z,3.05
2022-09-26T12:44:29.031Z,3.06
2022-09-26T12:47:27.980Z,2.96
2022-09-26T12:50:08.467Z,2.88
2022-09-26T12:52:51.315Z,2.90
2022-09-26T12:55:33.930Z,2.85
2022-09-26T12:58:25.680Z,2.89
2022-09-26T13:01:12.525Z,2.91
2022-09-26T13:04:23.506Z,2.97
2022-09-26T13:07:20.494Z,3.05
2022-09-26T13:10:17.738Z,3.07
2022-09-26T13:13:07.976Z,2.91
2022-09-26T13:15:54.719Z,2.94
2022-09-26T13:18:34.635Z,2.91
2022-09-26T13:21:10.055Z,2.82
2022-09-26T13:23:58.557Z,2.68
2022-09-26T13:26:36.423Z,2.74
2022-09-26T13:29:17.709Z,2.78
2022-09-26T13:31:50.687Z,2.82
2022-09-26T13:34:29.021Z,2.79
2022-09-26T13:37:00.253Z,2.77
2022-09-26T13:39:44.148Z,2.76
2022-09-26T13:42:49.446Z,2.76
2022-09-26T13:45:30.069Z,2.81
2022-09-26T13:48:09.241Z,2.67
2022-09-26T13:50:56.208Z,2.70
2022-09-26T13:53:58.385Z,2.76
2022-09-26T13:56:36.668Z,2.74
2022-09-26T13:59:27.956Z,2.77
2022-09-26T14:02:30.820Z,2.78
2022-09-26T14:05:04.781Z,2.82
2022-09-26T14:08:01.545Z,2.84
2022-09-26T14:10:39.862Z,2.88
2022-09-26T14:13:22.728Z,2.94
2022-09-26T14:15:58.228Z,2.90
2022-09-26T14:18:56.426Z,2.88
2022-09-26T14:21:37.974Z,2.88
2022-09-26T14:24:21.202Z,2.93
2022-09-26T14:27:13.254Z,2.88
2022-09-26T14:29:43.217Z,2.83
2022-09-26T14:32:33.131Z,2.83
2022-09-26T14:35:05.420Z,2.78
2022-09-26T14:37:35.210Z,2.84
2022-09-26T14:40:08.961Z,2.84
2022-09-26T14:42:45.825Z,2.88
2022-09-26T14:45:22.324Z,2.80
2022-09-26T14:48:07.137Z,2.80
2022-09-26T14:50:45.013Z,2.73
2022-09-26T14:53:38.755Z,2.74
2022-09-26T14:56:13.137Z,2.75
2022-09-26T14:58:41.038Z,2.78
2022-09-26T15:01:34.917Z,2.74
2022-09-26T15:04:17.085Z,2.66
2022-09-26T15:06:50.362Z,2.75
2022-09-26T15:09:26.848Z,2.78
2022-09-26T15:12:12.089Z,2.80
2022-09-26T15:14:48.767Z,2.70
2022-09-26T15:17:27.014Z,2.47
2022-09-26T15:20:00.207Z,2.58
2022-09-26T15:22:31.882Z,2.60
2022-09-26T15:25:32.758Z,2.54
2022-09-26T15:28:02.552Z,2.56
2022-09-26T15:30:34.225Z,2.54
2022-09-26T15:33:06.753Z,2.56
2022-09-26T15:35:34.805Z,2.49
2022-09-26T15:38:10.156Z,2.46
2022-09-26T15:40:38.263Z,2.43
2022-09-26T15:43:25.797Z,2.38
2022-09-26T15:45:59.290Z,2.35
2022-09-26T15:48:33.104Z,2.34
2022-09-26T15:51:24.338Z,2.32
2022-09-26T15:54:00.358Z,2.34
2022-09-26T15:56:28.302Z,2.31
2022-09-26T15:59:09.287Z,2.28
2022-09-26T16:01:43.199Z,2.27
2022-09-26T16:04:30.491Z,2.30
2022-09-26T16:07:21.417Z,2.33
2022-09-26T16:09:52.973Z,2.31
2022-09-26T16:12:25.938Z,2.28
2022-09-26T16:15:09.657Z,2.33
2022-09-26T16:17:38.088Z,2.41
2022-09-26T16:20:32.601Z,2.38
2022-09-26T16:25:51.846Z,2.33
2022-09-26T16:28:40.805Z,2.32
2022-09-26T16:31:14.122Z,2.33
2022-09-26T16:33:43.225Z,2.39
2022-09-26T16:36:20.252Z,2.35
2022-09-26T16:38:57.303Z,2.27
2022-09-26T16:42:00.105Z,2.24
2022-09-26T16:44:35.396Z,2.24
2022-09-26T16:47:07.950Z,2.25
2022-09-26T16:49:48.573Z,2.22
2022-09-26T16:52:37.415Z,2.26
2022-09-26T16:55:07.501Z,2.30
2022-09-26T16:57:48.971Z,2.28
2022-09-26T17:00:41.434Z,2.28
2022-09-26T17:03:27.557Z,2.28
2022-09-26T17:05:57.878Z,2.30
2022-09-26T17:08:28.028Z,2.29
2022-09-26T17:11:03.127Z,2.35
2022-09-26T17:13:36.693Z,2.32
2022-09-26T17:16:05.104Z,2.19
2022-09-26T17:18:34.430Z,2.29
2022-09-26T17:21:06.530Z,2.28
2022-09-26T17:23:41.471Z,2.23
2022-09-26T17:26:20.781Z,2.16
2022-09-26T17:28:49.972Z,2.09
2022-09-26T17:31:22.692Z,2.06
2022-09-26T17:33:55.039Z,1.98
2022-09-26T17:36:28.604Z,1.96
2022-09-26T17:39:00.034Z,1.95
2022-09-26T17:41:30.572Z,1.86
2022-09-26T17:44:01.549Z,1.89
2022-09-26T17:46:30.198Z,1.85
2022-09-26T17:49:00.972Z,1.93
2022-09-26T17:51:29.851Z,1.95
2022-09-26T17:53:58.056Z,1.97
2022-09-26T17:56:27.157Z,1.94
2022-09-26T17:58:56.165Z,1.82
2022-09-26T18:01:35.947Z,1.85
2022-09-26T18:04:13.370Z,1.81
2022-09-26T18:06:43.677Z,1.84
2022-09-26T18:09:18.866Z,1.84
2022-09-26T18:11:57.946Z,1.79
2022-09-26T18:14:27.845Z,1.79
2022-09-26T18:16:55.868Z,1.68
2022-09-26T18:19:23.892Z,1.72
2022-09-26T18:21:57.637Z,1.67
2022-09-26T18:24:28.678Z,1.72
2022-09-26T18:27:04.047Z,1.65
2022-09-26T18:29:36.617Z,1.61
2022-09-26T18:32:12.753Z,1.59
2022-09-26T18:34:42.061Z,1.60
2022-09-26T18:37:10.116Z,1.61
2022-09-26T18:39:38.076Z,1.57
2022-09-26T18:42:13.646Z,1.62
2022-09-26T18:44:43.339Z,1.68
2022-09-26T18:47:16.680Z,1.75
2022-09-26T18:49:48.068Z,1.74
2022-09-26T18:52:18.426Z,1.74
2022-09-26T18:54:47.017Z,1.77
2022-09-26T18:57:33.484Z,1.63
2022-09-26T19:00:03.756Z,1.69
2022-09-26T19:02:38.968Z,1.73
2022-09-26T19:05:11.146Z,1.73
2022-09-26T19:07:40.993Z,1.54
2022-09-26T19:10:19.129Z,1.72
2022-09-26T19:12:47.503Z,1.65
2022-09-26T19:15:18.171Z,1.68
2022-09-26T19:17:46.222Z,1.71
2022-09-26T19:20:14.500Z,1.70
2022-09-26T19:22:42.676Z,1.66
2022-09-26T19:25:11.235Z,1.71
2022-09-26T19:27:57.894Z,1.71
2022-09-26T19:30:27.698Z,1.71
2022-09-26T19:32:57.725Z,1.64
2022-09-26T19:35:32.331Z,1.64
2022-09-26T19:38:01.717Z,1.64
2022-09-26T19:40:30.270Z,1.72
2022-09-26T19:42:58.656Z,1.71
2022-09-26T19:45:32.215Z,1.74
2022-09-26T19:48:00.603Z,1.74
2022-09-26T19:50:30.616Z,1.76
2022-09-26T19:53:05.331Z,1.75
2022-09-26T19:55:33.437Z,1.73
2022-09-26T19:58:25.243Z,1.72
2022-09-26T20:00:55.829Z,1.73
2022-09-26T20:03:30.370Z,1.75
2022-09-26T20:05:58.694Z,1.77
2022-09-26T20:08:28.006Z,1.80
2022-09-26T20:10:57.226Z,1.83
2022-09-26T20:13:26.986Z,1.86
2022-09-26T20:15:56.625Z,1.85
2022-09-26T20:18:25.439Z,1.85
2022-09-26T20:20:56.671Z,1.89
2022-09-26T20:23:28.232Z,1.90
2022-09-26T20:25:56.669Z,1.92
2022-09-26T20:28:25.747Z,1.91
2022-09-26T20:30:56.164Z,1.92
2022-09-26T20:33:26.872Z,1.94
2022-09-26T20:36:03.331Z,1.93
2022-09-26T20:38:39.154Z,1.95
2022-09-26T20:41:31.952Z,1.94
2022-09-26T20:44:05.607Z,1.95
2022-09-26T20:46:38.930Z,1.95
2022-09-26T20:49:13.754Z,1.94
2022-09-26T20:51:41.839Z,1.94
2022-09-26T20:54:27.369Z,1.91
2022-09-26T20:56:59.393Z,1.90
2022-09-26T20:59:28.428Z,1.92
2022-09-26T21:01:58.198Z,1.83
2022-09-26T21:04:32.726Z,1.90
2022-09-26T21:07:00.745Z,1.92
2022-09-26T21:09:29.769Z,1.93
2022-09-26T21:11:57.689Z,1.87
2022-09-26T21:14:26.690Z,1.83
2022-09-26T21:16:56.454Z,1.84
2022-09-26T21:19:25.849Z,1.84
2022-09-26T21:21:53.859Z,1.83
2022-09-26T21:24:32.745Z,1.79
2022-09-26T21:27:00.710Z,1.80
2022-09-26T21:29:28.760Z,1.75
2022-09-26T21:32:04.449Z,1.80
2022-09-26T21:34:34.428Z,1.81
2022-09-26T21:37:04.456Z,1.54
2022-09-26T21:39:33.946Z,1.75
2022-09-26T21:42:05.269Z,1.78
2022-09-26T21:44:47.981Z,1.74
2022-09-26T21:47:16.156Z,1.78
2022-09-26T21:49:44.392Z,1.80
2022-09-26T21:52:19.866Z,1.73
2022-09-26T21:54:48.254Z,1.74
2022-09-26T21:57:29.978Z,1.77
2022-09-26T21:59:59.525Z,1.77
2022-09-26T22:02:28.363Z,1.78
2022-09-26T22:04:56.512Z,1.79
2022-09-26T22:07:24.426Z,1.80
2022-09-26T22:09:52.381Z,1.80
2022-09-26T22:12:21.585Z,1.80
2022-09-26T22:14:49.732Z,1.77
2022-09-26T22:17:19.254Z,1.80
2022-09-26T22:19:48.474Z,1.79
2022-09-26T22:22:18.049Z,1.80
2022-09-26T22:24:46.429Z,1.79
2022-09-26T22:27:16.919Z,1.79
2022-09-26T22:29:45.093Z,1.76
2022-09-26T22:32:13.963Z,1.53
2022-09-26T22:34:42.111Z,1.74
2022-09-26T22:37:10.233Z,1.76
2022-09-26T22:39:38.228Z,1.76
2022-09-26T22:42:07.620Z,1.70
2022-09-26T22:44:36.665Z,1.64
2022-09-26T22:47:04.942Z,1.60
2022-09-26T22:49:34.171Z,1.67
2022-09-26T22:52:02.219Z,1.68
2022-09-26T22:54:30.089Z,1.60
2022-09-26T22:56:59.079Z,1.57
2022-09-26T22:59:27.105Z,1.63
2022-09-26T23:01:57.931Z,1.60
2022-09-26T23:04:47.411Z,1.66
2022-09-26T23:07:16.624Z,1.69
2022-09-26T23:09:45.126Z,1.69
2022-09-26T23:12:15.818Z,1.53
2022-09-26T23:14:43.801Z,1.67
2022-09-26T23:17:11.955Z,1.68
2022-09-26T23:19:41.100Z,1.66
2022-09-26T23:22:09.120Z,1.60
2022-09-26T23:24:37.033Z,1.61
2022-09-26T23:27:06.718Z,1.58
2022-09-26T23:29:53.016Z,1.56
2022-09-26T23:32:21.272Z,1.55
2022-09-26T23:34:49.296Z,1.54
2022-09-26T23:37:17.246Z,1.54
2022-09-26T23:39:47.687Z,1.55
2022-09-26T23:42:15.755Z,1.55
2022-09-26T23:44:43.717Z,1.53
2022-09-26T23:47:11.849Z,1.50
2022-09-26T23:49:39.870Z,1.50
2022-09-26T23:52:07.791Z,1.51
2022-09-26T23:54:35.842Z,1.46
2022-09-26T23:57:03.813Z,1.51
2022-09-26T23:59:31.935Z,1.43
